Nearby METAR Reports

 

CYUL - Montreal/Dorval, Quebec, Canada
Distance from station: ENE 6km
Updated: 01/20/2021 05:00 EST
Light snow, Overcast
Light snow, Overcast
 Wind from calm
Wind: Calm
Temperature: -9°C
Dew Point: -10°C
Humidity: 93%
Barometer: 1010.8 hPa
Summary: Light Snow
Clouds: Overcast
Visibility: 16 km
Cloud details: Few Clouds 152 m
Overcast 1981 m
2021/01/20 10:00 CYUL 201000Z 00000KT 10SM -SN FEW005 OVC065 M09/M10 A2985 RMK SF2SC6 SLP113
CWVQ - Ste Anne De Bell, Quebec, Canada
Distance from station: WSW 10km
Updated: 01/20/2021 05:00 EST

 Wind from E
Wind: E 2 km/h
Temperature: -10°C
Dew Point: -11°C
Humidity: 92%
2021/01/20 10:00 CWVQ 201000Z AUTO 10001KT M10/M11 RMK AO1 SOG 31 8010 SLP112 T10971107
 
CWTA - Mc Tavish (aut), Quebec, Canada
Distance from station: ENE 18km
Updated: 01/20/2021 05:00 EST

 Wind from ENE
Wind: ENE 2 km/h
Temperature: -7°C
Dew Point: -8°C
Humidity: 93%
2021/01/20 10:00 CWTA 201000Z AUTO 07001KT M07/M08 RMK AO1 2PAST HR SOG 34 8007 SLP110 P0001 T10691078 50002
CYMX - Montreal/Mirabel, Quebec, Canada
Distance from station: NW 29km
Updated: 01/20/2021 05:00 EST
Mostly cloudy
Mostly cloudy
 Wind from W
Wind: W 6 km/h
Temperature: -10°C
Dew Point: -11°C
Humidity: 92%
Barometer: 1010.5 hPa
Clouds: Mostly cloudy
Visibility: 24 km
Cloud details: Few Clouds 91 m
Mostly cloudy 2134 m
2021/01/20 10:00 CYMX 201000Z 27003KT 210V310 15SM FEW003 BKN070 M10/M11 A2984 RMK SF2AC4 SLP112
 
CYHU - Saint Hubert Arp, Quebec, Canada
Distance from station: ENE 31km
Updated: 01/20/2021 05:52 EST
Overcast
Overcast
 Wind from SSE
Wind: SSE 6 km/h
Temperature: -10°C
Dew Point: -11°C
Humidity: 92%
Barometer: 1011.2 hPa
Clouds: Overcast
Visibility: 11 km
Cloud details: Partly cloudy 183 m
Overcast 2286 m
2021/01/20 10:52 CYHU 201052Z AUTO 15003KT 7SM SCT006 OVC075 M10/M11 A2986 RMK SLP116
CWIT - St Clothilde (a, Quebec, Canada
Distance from station: SSE 33km
Updated: 01/20/2021 05:00 EST

 Wind from calm
Wind: Calm
Temperature: -9°C
Dew Point: -11°C
Humidity: 86%
2021/01/20 10:00 CWIT 201000Z AUTO 00000KT M09/M11 RMK AO1 SOG 19 7007 SLP110 T10941106
 
CWIZ - L'acadie, Quebec, Canada
Distance from station: ESE 41km
Updated: 01/20/2021 05:00 EST

 Wind from calm
Wind: Calm
Temperature: -11°C
Dew Point: -12°C
Humidity: 92%
2021/01/20 10:00 CWIZ 201000Z AUTO 00000KT M11/M12 RMK AO1 SOG 22 T11061116
CWHM - Varennes, Quebec, Canada
Distance from station: NE 45km
Updated: 10/25/2016 10:00 EDT
NOT Current

 Wind from W
Wind: W 19 km/h, Gust: 28 km/h
Temperature: 4°C
Wind Chill: 0°C
Dew Point: -2°C
Humidity: 65%
2016/10/25 14:00 CWHM 251400Z AUTO 28010G15KT 04/M02 RMK AO1 PK WND 28018/1302 T00391017
 
CWEW - L'assomption, Quebec, Canada
Distance from station: NE 50km
Updated: 01/20/2021 05:00 EST

 Wind from calm
Wind: Calm
Temperature: -11°C
Dew Point: -12°C
Humidity: 92%
2021/01/20 10:00 CWEW 201000Z AUTO 00000KT M11/M12 RMK AO1 SOG 28 8007 SLP122 T11061122
CWBZ - St Anicet, Quebec, Canada
Distance from station: SW 52km
Updated: 01/20/2021 05:00 EST

 Wind from WSW
Wind: WSW 2 km/h
Temperature: -8°C
Dew Point: -9°C
Humidity: 93%
2021/01/20 10:00 CWBZ 201000Z AUTO 25001KT M08/M09 RMK AO1 6006 SLP111 T10761086 50002
 
KFSO - Highgate, Vermont, USA
Distance from station: SE 79km
Updated: 01/20/2021 05:35 EST
Overcast
Overcast
 Wind from calm
Wind: Calm
Temperature: -5°C
Dew Point: -6°C
Humidity: 93%
Barometer: 1010.8 hPa
Clouds: Overcast
Visibility: 16 km
Cloud details: Overcast 914 m
2021/01/20 10:35 KFSO 201035Z AUTO 00000KT 10SM OVC030 M05/M06 A2985 RMK AO2 T10501065
CMGB - Granby, Quebec, Canada
Distance from station: E 81km
Updated: 01/20/2021 05:00 EST

 Wind from SW
Wind: SW 2 km/h
Temperature: -7°C
Dew Point: -7°C
Humidity: 100%
2021/01/20 10:00 CMGB 201000Z AUTO 22001KT M07/M07 RMK AO1 SOG 18 6007 SLP111 T10671069
 
CWJT - St Jovite (autob, Quebec, Canada
Distance from station: NW 88km
Updated: 01/19/2021 18:00 EST
NOT Current

 Wind from calm
Wind: Calm
Temperature: -13°C
Dew Point: -14°C
Humidity: 92%
2021/01/19 23:00 CWJT 192300Z AUTO 00000KT M13/M14 RMK AO1 SLP108 T11261137 51030
CWFQ - Frelighsburg, Quebec, Canada
Distance from station: ESE 90km
Updated: 01/20/2021 05:00 EST

 Wind from S
Wind: S 4 km/h
Temperature: -6°C
Dew Point: -7°C
Humidity: 93%
2021/01/20 10:00 CWFQ 201000Z AUTO 19002KT M06/M07 RMK AO1 SOG 23 7007 SLP106 T10601069
 
KPBG - Plattsburgh Afb, New York, USA
Distance from station: SSE 93km
Updated: 01/20/2021 05:33 EST
Overcast
Overcast
 Wind from calm
Wind: Calm
Temperature: -4°C
Dew Point: -5°C
Humidity: 93%
Barometer: 1010.8 hPa
Clouds: Overcast
Visibility: 14 km
Cloud details: Mostly cloudy 274 m
Overcast 792 m
2021/01/20 10:33 KPBG 201033Z AUTO 00000KT 9SM BKN009 OVC026 M04/M05 A2985 RMK AO2 SNE33 P0001 T10441050
KMSS - Massena, New York, USA
Distance from station: SW 100km
Updated: 01/20/2021 05:38 EST
Overcast
Overcast
 Wind from calm
Wind: Calm
Temperature: -6°C
Dew Point: -8°C
Humidity: 86%
Barometer: 1011.9 hPa
Clouds: Overcast
Visibility: 16 km
Cloud details: Mostly cloudy 427 m
Overcast 610 m
2021/01/20 10:38 KMSS 201038Z AUTO 00000KT 10SM BKN014 OVC020 M06/M08 A2988 RMK AO2 T10561078
 
CWBS - Lac St Pierre (a, Quebec, Canada
Distance from station: NE 106km
Updated: 01/20/2021 05:00 EST

 Wind from NNW
Wind: NNW 6 km/h
Temperature: -9°C
Dew Point: -11°C
Humidity: 86%
2021/01/20 10:00 CWBS 201000Z AUTO 33003KT M09/M11 RMK AO1 T10921109
KBTV - Burlington, Vermont, USA
Distance from station: SSE 121km
Updated: 01/20/2021 05:41 EST
Light snow, Mist, Overcast
Light snow, Mist, Overcast
 Wind from calm
Wind: Calm
Temperature: -3°C
Dew Point: -6°C
Humidity: 80%
Barometer: 1010.8 hPa
Summary: Light snow, Mist
Clouds: Overcast
Visibility: 8 km
Cloud details: Overcast 549 m
2021/01/20 10:41 KBTV 201041Z 00000KT 5SM -SN BR OVC018 M03/M06 A2985 RMK AO2 P0001 T10331056
 
KSLK - Saranac Lake, New York, USA
Distance from station: SSW 121km
Updated: 01/20/2021 05:51 EST
Overcast
Overcast
 Wind from SW
Wind: SW 11 km/h
Temperature: -7°C
Wind Chill: -12°C
Dew Point: -8°C
Humidity: 93%
Barometer: 1007.5 hPa
Clouds: Overcast
Visibility: 16 km
Cloud details: Few Clouds 366 m
Few Clouds 549 m
Overcast 1524 m
2021/01/20 10:51 KSLK 201051Z AUTO 23006KT 10SM FEW012 FEW018 OVC050 M07/M08 A2975 RMK AO2 SLP099 T10721083
CWNQ - Nicolet (autob), Quebec, Canada
Distance from station: NE 123km
Updated: 01/20/2021 05:00 EST

 Wind from ESE
Wind: ESE 2 km/h
Temperature: -12°C
Dew Point: -14°C
Humidity: 85%
2021/01/20 10:00 CWNQ 201000Z AUTO 11001KT M12/M14 RMK AO1 SLP117 T11231139 55002
 
KMWN - Mount Washington, New Hampshire, USA
Distance from station: SE 237km
Updated: 01/20/2021 04:52 EST
Light snow, Showers, Freezing, Fog, Overcast
Light snow, Showers, Freezing, Fog, Overcast
 Wind from W
Wind: W 59 km/h
Temperature: -15°C
Wind Chill: -29°C
Dew Point: -15°C
Humidity: 100%
Summary: Light snow, Showers, Freezing, Fog
Clouds: Overcast
Visibility: 0.1 km
Cloud details: Overcast 30 m
2021/01/20 09:52 KMWN 200952Z 27032KT 1/16SM -SHSN FZFG VV001 M15/M15 RMK VRY LGT ICG
CYVR - Vancouver Intl A, British Columbia, Canada
Distance from station: NW 3676km
Updated: 01/20/2021 05:00 EST
Overcast
Overcast
 Wind from NNW
Wind: NNW 4 km/h
Temperature: 5°C
Dew Point: 4°C
Humidity: 93%
Barometer: 1024.7 hPa
Clouds: Overcast
Visibility: 24 km
Cloud details: Overcast 1006 m
2021/01/20 10:00 CYVR 201000Z 33002KT 15SM OVC033 05/04 A3026 RMK SC8 SLP248